Wetterdaten: Mittwoch, 13.07.2011
Datum Zeit Temp. A. Feuchte A. Luftdruck Regen Wind Richtung Richtung Sonnenschein UV Solar Windben
13.07.2011 00:00 18,3 C 85 % 1008,0 hPa 0,0 mm 0,0 km/h (0 Bft) O 90 0 min 0 UV-I 0 W/m 4,8 km/h (1 Bft)
13.07.2011 00:10 18,4 C 84 % 1008,2 hPa 0,0 mm 0,0 km/h (0 Bft) O 90 0 min 0 UV-I 0 W/m 8,0 km/h (2 Bft)
13.07.2011 00:20 18,3 C 85 % 1007,9 hPa 0,0 mm 1,6 km/h (1 Bft) N 360 0 min 0 UV-I 0 W/m 8,0 km/h (2 Bft)
13.07.2011 00:30 18,2 C 87 % 1007,7 hPa 0,0 mm 0,0 km/h (0 Bft) N 360 0 min 0 UV-I 0 W/m 4,8 km/h (1 Bft)
13.07.2011 00:40 18,2 C 87 % 1007,6 hPa 0,0 mm 0,0 km/h (0 Bft) N 360 0 min 0 UV-I 0 W/m 3,2 km/h (1 Bft)
13.07.2011 00:50 17,8 C 88 % 1007,4 hPa 0,0 mm 0,0 km/h (0 Bft) N-NO 22 0 min 0 UV-I 0 W/m 4,8 km/h (1 Bft)
13.07.2011 01:00 17,6 C 89 % 1007,1 hPa 0,0 mm 0,0 km/h (0 Bft) N-NO 22 0 min 0 UV-I 0 W/m 4,8 km/h (1 Bft)
13.07.2011 01:10 17,5 C 89 % 1006,9 hPa 0,0 mm 1,6 km/h (1 Bft) N-NO 22 0 min 0 UV-I 0 W/m 4,8 km/h (1 Bft)
13.07.2011 01:20 17,3 C 90 % 1006,7 hPa 0,0 mm 0,0 km/h (0 Bft) N-NO 22 0 min 0 UV-I 0 W/m 4,8 km/h (1 Bft)
13.07.2011 01:30 17,3 C 90 % 1006,7 hPa 0,0 mm 0,0 km/h (0 Bft) N-NO 22 0 min 0 UV-I 0 W/m 3,2 km/h (1 Bft)
13.07.2011 01:40 17,4 C 90 % 1006,5 hPa 0,0 mm 0,0 km/h (0 Bft) N-NO 22 0 min 0 UV-I 0 W/m 1,6 km/h (1 Bft)
13.07.2011 01:50 17,3 C 90 % 1006,7 hPa 0,0 mm 0,0 km/h (0 Bft) N-NO 22 0 min 0 UV-I 0 W/m 1,6 km/h (1 Bft)
13.07.2011 02:00 17,3 C 90 % 1006,7 hPa 0,0 mm 0,0 km/h (0 Bft) N 0 0 min 0 UV-I 0 W/m 0,0 km/h (0 Bft)
13.07.2011 02:10 17,4 C 90 % 1006,6 hPa 0,0 mm 0,0 km/h (0 Bft) N 0 0 min 0 UV-I 0 W/m 0,0 km/h (0 Bft)
13.07.2011 02:20 17,3 C 89 % 1006,5 hPa 0,0 mm 0,0 km/h (0 Bft) N-NO 22 0 min 0 UV-I 0 W/m 1,6 km/h (1 Bft)
13.07.2011 02:30 17,1 C 90 % 1006,4 hPa 0,0 mm 0,0 km/h (0 Bft) N 0 0 min 0 UV-I 0 W/m 0,0 km/h (0 Bft)
13.07.2011 02:40 16,9 C 90 % 1006,2 hPa 0,0 mm 0,0 km/h (0 Bft) N-NO 22 0 min 0 UV-I 0 W/m 1,6 km/h (1 Bft)
13.07.2011 02:50 16,8 C 90 % 1006,2 hPa 0,0 mm 0,0 km/h (0 Bft) N-NO 22 0 min 0 UV-I 0 W/m 1,6 km/h (1 Bft)
13.07.2011 03:00 16,7 C 90 % 1006,2 hPa 0,0 mm 0,0 km/h (0 Bft) N-NO 22 0 min 0 UV-I 0 W/m 4,8 km/h (1 Bft)
13.07.2011 03:10 16,8 C 89 % 1006,0 hPa 0,0 mm 0,0 km/h (0 Bft) N-NO 22 0 min 0 UV-I 0 W/m 1,6 km/h (1 Bft)
13.07.2011 03:20 16,9 C 89 % 1006,0 hPa 0,0 mm 0,0 km/h (0 Bft) N-NO 22 0 min 0 UV-I 0 W/m 1,6 km/h (1 Bft)
13.07.2011 03:30 16,8 C 89 % 1006,0 hPa 0,0 mm 0,0 km/h (0 Bft) N-NO 22 0 min 0 UV-I 0 W/m 1,6 km/h (1 Bft)
13.07.2011 03:40 16,6 C 89 % 1005,8 hPa 0,0 mm 0,0 km/h (0 Bft) N-NO 22 0 min 0 UV-I 0 W/m 6,4 km/h (2 Bft)
13.07.2011 03:50 16,5 C 89 % 1005,8 hPa 0,0 mm 0,0 km/h (0 Bft) N-NO 22 0 min 0 UV-I 0 W/m 4,8 km/h (1 Bft)
13.07.2011 04:00 16,4 C 88 % 1005,6 hPa 0,0 mm 0,0 km/h (0 Bft) N-NO 22 0 min 0 UV-I 0 W/m 4,8 km/h (1 Bft)
13.07.2011 04:10 16,3 C 88 % 1005,6 hPa 0,0 mm 0,0 km/h (0 Bft) N-NO 22 0 min 0 UV-I 0 W/m 4,8 km/h (1 Bft)
13.07.2011 04:20 16,3 C 88 % 1005,4 hPa 0,0 mm 0,0 km/h (0 Bft) N-NO 22 0 min 0 UV-I 0 W/m 1,6 km/h (1 Bft)
13.07.2011 04:30 16,3 C 88 % 1005,5 hPa 0,0 mm 0,0 km/h (0 Bft) N-NO 22 0 min 0 UV-I 0 W/m 3,2 km/h (1 Bft)
13.07.2011 04:40 16,5 C 87 % 1005,3 hPa 0,0 mm 0,0 km/h (0 Bft) N-NO 22 0 min 0 UV-I 0 W/m 3,2 km/h (1 Bft)
13.07.2011 04:50 16,6 C 87 % 1005,2 hPa 0,0 mm 0,0 km/h (0 Bft) N 0 0 min 0 UV-I 0 W/m 0,0 km/h (0 Bft)
13.07.2011 05:00 16,6 C 87 % 1005,2 hPa 0,0 mm 0,0 km/h (0 Bft) N-NO 22 0 min 0 UV-I 0 W/m 1,6 km/h (1 Bft)
13.07.2011 05:10 16,6 C 87 % 1005,1 hPa 0,0 mm 0,0 km/h (0 Bft) N-NO 22 0 min 0 UV-I 0 W/m 1,6 km/h (1 Bft)
13.07.2011 05:20 16,6 C 87 % 1005,1 hPa 0,0 mm 0,0 km/h (0 Bft) N-NO 22 0 min 0 UV-I 0 W/m 4,8 km/h (1 Bft)
13.07.2011 05:30 16,7 C 87 % 1005,1 hPa 0,0 mm 0,0 km/h (0 Bft) N-NO 22 0 min 0 UV-I 0 W/m 3,2 km/h (1 Bft)
13.07.2011 05:40 16,7 C 87 % 1005,0 hPa 0,0 mm 0,0 km/h (0 Bft) N-NO 22 0 min 0 UV-I 0 W/m 1,6 km/h (1 Bft)
13.07.2011 05:50 16,8 C 86 % 1005,0 hPa 0,0 mm 0,0 km/h (0 Bft) N 0 0 min 0 UV-I 9 W/m 0,0 km/h (0 Bft)
13.07.2011 06:00 16,8 C 86 % 1004,9 hPa 0,0 mm 0,0 km/h (0 Bft) N 0 0 min 0 UV-I 12 W/m 0,0 km/h (0 Bft)
13.07.2011 06:10 16,9 C 86 % 1004,8 hPa 0,0 mm 0,0 km/h (0 Bft) N 0 0 min 0 UV-I 21 W/m 0,0 km/h (0 Bft)
13.07.2011 06:20 17,0 C 87 % 1004,7 hPa 0,0 mm 0,0 km/h (0 Bft) N 0 0 min 0 UV-I 25 W/m 0,0 km/h (0 Bft)
13.07.2011 06:30 17,2 C 86 % 1005,1 hPa 0,0 mm 0,0 km/h (0 Bft) N 0 0 min 0 UV-I 42 W/m 0,0 km/h (0 Bft)
13.07.2011 06:40 17,4 C 85 % 1005,1 hPa 0,0 mm 0,0 km/h (0 Bft) N 0 0 min 0 UV-I 53 W/m 0,0 km/h (0 Bft)
13.07.2011 06:50 17,6 C 87 % 1005,1 hPa 0,0 mm 0,0 km/h (0 Bft) N-NO 22 0 min 0 UV-I 88 W/m 1,6 km/h (1 Bft)
13.07.2011 07:00 17,7 C 86 % 1005,0 hPa 0,0 mm 0,0 km/h (0 Bft) N-NO 22 0 min 0 UV-I 83 W/m 6,4 km/h (2 Bft)
13.07.2011 07:10 17,9 C 84 % 1005,0 hPa 0,0 mm 0,0 km/h (0 Bft) N-NO 22 0 min 1 UV-I 97 W/m 1,6 km/h (1 Bft)
13.07.2011 07:20 18,3 C 84 % 1004,9 hPa 0,0 mm 0,0 km/h (0 Bft) N-NO 22 10 min 1 UV-I 155 W/m 3,2 km/h (1 Bft)
13.07.2011 07:30 18,6 C 82 % 1005,1 hPa 0,0 mm 0,0 km/h (0 Bft) N-NO 22 0 min 1 UV-I 149 W/m 3,2 km/h (1 Bft)
13.07.2011 07:40 18,8 C 82 % 1005,3 hPa 0,0 mm 0,0 km/h (0 Bft) N-NO 22 0 min 1 UV-I 98 W/m 3,2 km/h (1 Bft)
13.07.2011 07:50 19,0 C 81 % 1005,7 hPa 0,0 mm 0,0 km/h (0 Bft) N-NO 22 0 min 1 UV-I 98 W/m 1,6 km/h (1 Bft)
13.07.2011 08:00 19,1 C 82 % 1005,7 hPa 0,0 mm 0,0 km/h (0 Bft) N-NO 21 0 min 0 UV-I 57 W/m 1,6 km/h (1 Bft)
13.07.2011 08:10 19,1 C 82 % 1005,9 hPa 0,0 mm 3,2 km/h (1 Bft) W-SW 247 0 min 1 UV-I 109 W/m 17,7 km/h (3 Bft)
13.07.2011 08:20 19,0 C 82 % 1005,9 hPa 0,0 mm 6,4 km/h (2 Bft) W 270 0 min 1 UV-I 83 W/m 19,3 km/h (3 Bft)
13.07.2011 08:30 18,8 C 83 % 1006,0 hPa 0,0 mm 6,4 km/h (2 Bft) W 270 0 min 1 UV-I 88 W/m 17,7 km/h (3 Bft)
13.07.2011 08:40 18,7 C 84 % 1005,9 hPa 0,0 mm 4,8 km/h (1 Bft) W 270 0 min 1 UV-I 109 W/m 11,3 km/h (2 Bft)
13.07.2011 08:50 18,7 C 84 % 1005,8 hPa 0,0 mm 4,8 km/h (1 Bft) W 270 0 min 1 UV-I 102 W/m 11,3 km/h (2 Bft)
13.07.2011 09:00 18,7 C 84 % 1006,0 hPa 0,0 mm 3,2 km/h (1 Bft) W 270 0 min 1 UV-I 79 W/m 12,9 km/h (3 Bft)
13.07.2011 09:10 18,8 C 84 % 1006,0 hPa 0,0 mm 1,6 km/h (1 Bft) W-SW 247 0 min 1 UV-I 104 W/m 8,0 km/h (2 Bft)
13.07.2011 09:20 18,9 C 84 % 1006,0 hPa 0,0 mm 3,2 km/h (1 Bft) W 270 0 min 1 UV-I 155 W/m 9,7 km/h (2 Bft)
13.07.2011 09:30 19,0 C 83 % 1006,1 hPa 0,0 mm 4,8 km/h (1 Bft) W 270 0 min 1 UV-I 216 W/m 17,7 km/h (3 Bft)
13.07.2011 09:40 19,1 C 83 % 1006,0 hPa 0,0 mm 6,4 km/h (2 Bft) W-SW 247 0 min 2 UV-I 248 W/m 16,1 km/h (3 Bft)
13.07.2011 09:50 19,3 C 83 % 1006,0 hPa 0,0 mm 4,8 km/h (1 Bft) W 270 0 min 2 UV-I 264 W/m 17,7 km/h (3 Bft)
13.07.2011 10:00 19,4 C 82 % 1005,8 hPa 0,0 mm 4,8 km/h (1 Bft) W-SW 247 0 min 2 UV-I 269 W/m 14,5 km/h (3 Bft)
13.07.2011 10:10 19,7 C 81 % 1006,0 hPa 0,0 mm 4,8 km/h (1 Bft) W-SW 247 0 min 2 UV-I 297 W/m 16,1 km/h (3 Bft)
13.07.2011 10:20 19,5 C 82 % 1006,1 hPa 0,0 mm 3,2 km/h (1 Bft) W-SW 247 0 min 1 UV-I 171 W/m 16,1 km/h (3 Bft)
13.07.2011 10:30 19,3 C 82 % 1006,1 hPa 0,0 mm 3,2 km/h (1 Bft) W-SW 247 0 min 2 UV-I 227 W/m 9,7 km/h (2 Bft)
13.07.2011 10:40 19,3 C 82 % 1006,1 hPa 0,0 mm 4,8 km/h (1 Bft) W-SW 247 0 min 1 UV-I 183 W/m 16,1 km/h (3 Bft)
13.07.2011 10:50 19,0 C 83 % 1006,0 hPa 0,0 mm 4,8 km/h (1 Bft) W 270 0 min 2 UV-I 192 W/m 16,1 km/h (3 Bft)
13.07.2011 11:00 19,1 C 82 % 1006,0 hPa 0,0 mm 3,2 km/h (1 Bft) W 270 0 min 2 UV-I 229 W/m 14,5 km/h (3 Bft)
13.07.2011 11:10 19,2 C 81 % 1006,3 hPa 0,0 mm 3,2 km/h (1 Bft) W 270 0 min 1 UV-I 146 W/m 16,1 km/h (3 Bft)
13.07.2011 11:20 19,1 C 80 % 1006,2 hPa 0,0 mm 4,8 km/h (1 Bft) W 270 0 min 1 UV-I 128 W/m 14,5 km/h (3 Bft)
13.07.2011 11:30 18,9 C 80 % 1006,3 hPa 0,0 mm 3,2 km/h (1 Bft) W 270 0 min 2 UV-I 199 W/m 9,7 km/h (2 Bft)
13.07.2011 11:40 19,2 C 79 % 1006,1 hPa 0,0 mm 3,2 km/h (1 Bft) W-SW 247 0 min 2 UV-I 246 W/m 12,9 km/h (3 Bft)
13.07.2011 11:50 19,3 C 79 % 1006,1 hPa 0,0 mm 1,6 km/h (1 Bft) W-SW 247 0 min 2 UV-I 167 W/m 8,0 km/h (2 Bft)
13.07.2011 12:00 19,2 C 79 % 1006,4 hPa 0,0 mm 3,2 km/h (1 Bft) W-SW 247 0 min 2 UV-I 139 W/m 11,3 km/h (2 Bft)
13.07.2011 12:10 19,2 C 79 % 1006,4 hPa 0,0 mm 3,2 km/h (1 Bft) W-SW 247 0 min 1 UV-I 132 W/m 11,3 km/h (2 Bft)
13.07.2011 12:20 19,2 C 79 % 1006,4 hPa 0,0 mm 3,2 km/h (1 Bft) W-SW 247 0 min 2 UV-I 185 W/m 14,5 km/h (3 Bft)
13.07.2011 12:30 19,1 C 78 % 1006,3 hPa 0,0 mm 3,2 km/h (1 Bft) W-SW 247 0 min 2 UV-I 211 W/m 11,3 km/h (2 Bft)
13.07.2011 12:40 19,3 C 78 % 1006,3 hPa 0,0 mm 3,2 km/h (1 Bft) W 270 0 min 2 UV-I 190 W/m 11,3 km/h (2 Bft)
13.07.2011 12:50 19,2 C 77 % 1006,4 hPa 0,0 mm 4,8 km/h (1 Bft) W 270 0 min 2 UV-I 183 W/m 11,3 km/h (2 Bft)
13.07.2011 13:00 19,2 C 78 % 1006,4 hPa 0,0 mm 4,8 km/h (1 Bft) W-SW 247 0 min 2 UV-I 216 W/m 16,1 km/h (3 Bft)
13.07.2011 13:10 19,2 C 80 % 1006,3 hPa 0,0 mm 4,8 km/h (1 Bft) W 270 0 min 3 UV-I 308 W/m 17,7 km/h (3 Bft)
13.07.2011 13:20 19,1 C 81 % 1006,4 hPa 0,3 mm 4,8 km/h (1 Bft) W 270 0 min 3 UV-I 320 W/m 16,1 km/h (3 Bft)
13.07.2011 13:30 18,9 C 80 % 1006,2 hPa 0,0 mm 4,8 km/h (1 Bft) W 270 0 min 3 UV-I 325 W/m 19,3 km/h (3 Bft)
13.07.2011 13:40 18,9 C 80 % 1006,2 hPa 0,0 mm 1,6 km/h (1 Bft) W 270 0 min 2 UV-I 234 W/m 8,0 km/h (2 Bft)
13.07.2011 13:50 19,0 C 78 % 1006,2 hPa 0,0 mm 3,2 km/h (1 Bft) S-SW 202 0 min 3 UV-I 322 W/m 17,7 km/h (3 Bft)
13.07.2011 14:00 19,2 C 77 % 1006,2 hPa 0,0 mm 4,8 km/h (1 Bft) W 270 0 min 3 UV-I 306 W/m 17,7 km/h (3 Bft)
13.07.2011 14:10 19,1 C 77 % 1006,2 hPa 0,0 mm 4,8 km/h (1 Bft) W 270 0 min 3 UV-I 248 W/m 14,5 km/h (3 Bft)
13.07.2011 14:20 19,1 C 78 % 1006,3 hPa 0,0 mm 4,8 km/h (1 Bft) W 270 0 min 3 UV-I 366 W/m 14,5 km/h (3 Bft)
13.07.2011 14:30 19,3 C 77 % 1006,2 hPa 0,0 mm 3,2 km/h (1 Bft) W 270 0 min 3 UV-I 362 W/m 11,3 km/h (2 Bft)
13.07.2011 14:40 19,3 C 77 % 1006,2 hPa 0,0 mm 3,2 km/h (1 Bft) S-SW 202 0 min 2 UV-I 239 W/m 14,5 km/h (3 Bft)
13.07.2011 14:50 19,4 C 76 % 1006,2 hPa 0,0 mm 4,8 km/h (1 Bft) W 270 0 min 2 UV-I 271 W/m 12,9 km/h (3 Bft)
13.07.2011 15:00 19,3 C 77 % 1006,4 hPa 0,0 mm 4,8 km/h (1 Bft) W 270 0 min 2 UV-I 176 W/m 17,7 km/h (3 Bft)
13.07.2011 15:10 19,3 C 76 % 1006,5 hPa 0,0 mm 4,8 km/h (1 Bft) W 270 0 min 2 UV-I 199 W/m 17,7 km/h (3 Bft)
13.07.2011 15:20 19,3 C 75 % 1006,5 hPa 0,0 mm 6,4 km/h (2 Bft) W 270 0 min 2 UV-I 206 W/m 20,9 km/h (4 Bft)
13.07.2011 15:30 19,2 C 76 % 1006,5 hPa 0,0 mm 8,0 km/h (2 Bft) W 270 0 min 1 UV-I 121 W/m 20,9 km/h (4 Bft)
13.07.2011 15:40 19,2 C 76 % 1006,5 hPa 0,0 mm 6,4 km/h (2 Bft) W 270 0 min 2 UV-I 174 W/m 19,3 km/h (3 Bft)
13.07.2011 15:50 19,2 C 76 % 1006,7 hPa 0,0 mm 4,8 km/h (1 Bft) W 270 0 min 2 UV-I 176 W/m 17,7 km/h (3 Bft)
13.07.2011 16:00 19,0 C 75 % 1006,7 hPa 0,0 mm 6,3 km/h (2 Bft) W-SW 255 0 min 1 UV-I 99 W/m 22,5 km/h (4 Bft)
13.07.2011 16:10 18,8 C 76 % 1006,7 hPa 0,0 mm 8,0 km/h (2 Bft) W-SW 247 0 min 1 UV-I 139 W/m 19,3 km/h (3 Bft)
13.07.2011 16:20 18,7 C 77 % 1006,7 hPa 0,0 mm 4,8 km/h (1 Bft) W 270 0 min 2 UV-I 183 W/m 16,1 km/h (3 Bft)
13.07.2011 16:30 18,7 C 77 % 1006,8 hPa 0,0 mm 6,4 km/h (2 Bft) W-SW 247 0 min 1 UV-I 160 W/m 20,9 km/h (4 Bft)
13.07.2011 16:40 18,3 C 79 % 1006,7 hPa 0,0 mm 6,4 km/h (2 Bft) W 270 0 min 1 UV-I 69 W/m 20,9 km/h (4 Bft)
13.07.2011 16:50 18,2 C 81 % 1006,7 hPa 0,0 mm 4,8 km/h (1 Bft) W 270 0 min 1 UV-I 95 W/m 14,5 km/h (3 Bft)
13.07.2011 17:00 18,1 C 80 % 1006,8 hPa 0,0 mm 4,8 km/h (1 Bft) W 270 0 min 1 UV-I 109 W/m 17,7 km/h (3 Bft)
13.07.2011 17:10 18,0 C 80 % 1006,7 hPa 0,0 mm 3,2 km/h (1 Bft) W-NW 292 0 min 1 UV-I 107 W/m 14,5 km/h (3 Bft)
13.07.2011 17:20 17,9 C 81 % 1006,6 hPa 0,0 mm 4,8 km/h (1 Bft) W 270 0 min 1 UV-I 113 W/m 17,7 km/h (3 Bft)
13.07.2011 17:30 17,9 C 80 % 1006,7 hPa 0,0 mm 4,8 km/h (1 Bft) W 270 0 min 1 UV-I 149 W/m 14,5 km/h (3 Bft)
13.07.2011 17:40 18,0 C 79 % 1006,6 hPa 0,0 mm 4,8 km/h (1 Bft) W 270 0 min 1 UV-I 151 W/m 16,1 km/h (3 Bft)
13.07.2011 17:50 18,0 C 80 % 1006,8 hPa 0,0 mm 6,4 km/h (2 Bft) W 270 0 min 1 UV-I 107 W/m 17,7 km/h (3 Bft)
13.07.2011 18:00 17,8 C 80 % 1006,7 hPa 0,0 mm 6,4 km/h (2 Bft) W 270 0 min 1 UV-I 121 W/m 16,1 km/h (3 Bft)
13.07.2011 18:10 17,8 C 79 % 1006,7 hPa 0,0 mm 4,8 km/h (1 Bft) W 270 0 min 1 UV-I 118 W/m 14,5 km/h (3 Bft)
13.07.2011 18:20 17,8 C 79 % 1007,0 hPa 0,0 mm 6,4 km/h (2 Bft) W 270 0 min 1 UV-I 120 W/m 16,1 km/h (3 Bft)
13.07.2011 18:30 17,7 C 80 % 1007,1 hPa 0,0 mm 4,8 km/h (1 Bft) W 270 0 min 0 UV-I 46 W/m 17,7 km/h (3 Bft)
13.07.2011 18:40 17,3 C 81 % 1007,3 hPa 0,0 mm 6,4 km/h (2 Bft) W 270 0 min 0 UV-I 56 W/m 17,7 km/h (3 Bft)
13.07.2011 18:50 17,0 C 82 % 1007,4 hPa 0,0 mm 6,4 km/h (2 Bft) W-SW 247 0 min 1 UV-I 70 W/m 17,7 km/h (3 Bft)
13.07.2011 19:00 16,8 C 84 % 1007,4 hPa 0,0 mm 6,4 km/h (2 Bft) W-SW 247 0 min 0 UV-I 44 W/m 16,1 km/h (3 Bft)
13.07.2011 19:10 16,6 C 84 % 1007,4 hPa 0,0 mm 6,4 km/h (2 Bft) W-SW 247 0 min 0 UV-I 54 W/m 16,1 km/h (3 Bft)
13.07.2011 19:20 16,4 C 85 % 1007,5 hPa 0,0 mm 6,4 km/h (2 Bft) W 270 0 min 0 UV-I 62 W/m 16,1 km/h (3 Bft)
13.07.2011 19:30 16,3 C 86 % 1007,6 hPa 0,0 mm 4,8 km/h (1 Bft) W-SW 247 0 min 0 UV-I 83 W/m 17,7 km/h (3 Bft)
13.07.2011 19:40 16,2 C 86 % 1007,6 hPa 0,0 mm 4,8 km/h (1 Bft) W-SW 247 0 min 0 UV-I 76 W/m 17,7 km/h (3 Bft)
13.07.2011 19:50 16,1 C 86 % 1007,7 hPa 0,0 mm 4,8 km/h (1 Bft) W 270 0 min 0 UV-I 54 W/m 14,5 km/h (3 Bft)
13.07.2011 20:00 15,9 C 86 % 1007,5 hPa 0,0 mm 6,4 km/h (2 Bft) W 270 0 min 0 UV-I 35 W/m 17,7 km/h (3 Bft)
13.07.2011 20:10 15,8 C 86 % 1007,3 hPa 0,0 mm 4,8 km/h (1 Bft) W-SW 247 0 min 0 UV-I 32 W/m 17,7 km/h (3 Bft)
13.07.2011 20:20 15,8 C 86 % 1007,5 hPa 0,0 mm 6,4 km/h (2 Bft) W-SW 247 0 min 0 UV-I 23 W/m 17,7 km/h (3 Bft)
13.07.2011 20:30 15,7 C 86 % 1007,6 hPa 0,0 mm 3,2 km/h (1 Bft) W-SW 247 0 min 0 UV-I 18 W/m 11,3 km/h (2 Bft)
13.07.2011 20:40 15,7 C 86 % 1007,6 hPa 0,0 mm 4,8 km/h (1 Bft) W-SW 247 0 min 0 UV-I 12 W/m 16,1 km/h (3 Bft)
13.07.2011 20:50 15,5 C 86 % 1007,7 hPa 0,0 mm 8,0 km/h (2 Bft) W-SW 247 0 min 0 UV-I 12 W/m 22,5 km/h (4 Bft)
13.07.2011 21:00 15,3 C 86 % 1007,6 hPa 0,0 mm 6,4 km/h (2 Bft) W-SW 247 0 min 0 UV-I 5 W/m 17,7 km/h (3 Bft)
13.07.2011 21:10 15,3 C 87 % 1007,7 hPa 0,0 mm 3,2 km/h (1 Bft) W 270 0 min 0 UV-I 0 W/m 14,5 km/h (3 Bft)
13.07.2011 21:20 15,2 C 87 % 1007,7 hPa 0,0 mm 6,4 km/h (2 Bft) S-SW 202 0 min 0 UV-I 0 W/m 17,7 km/h (3 Bft)
13.07.2011 21:30 15,1 C 87 % 1007,7 hPa 0,0 mm 3,2 km/h (1 Bft) W 270 0 min 0 UV-I 0 W/m 11,3 km/h (2 Bft)
13.07.2011 21:40 15,0 C 87 % 1007,8 hPa 0,0 mm 4,8 km/h (1 Bft) W 270 0 min 0 UV-I 0 W/m 19,3 km/h (3 Bft)
13.07.2011 21:50 15,0 C 87 % 1007,9 hPa 0,0 mm 8,0 km/h (2 Bft) W 270 0 min 0 UV-I 0 W/m 22,5 km/h (4 Bft)
13.07.2011 22:00 14,9 C 87 % 1008,0 hPa 0,0 mm 8,0 km/h (2 Bft) W 270 0 min 0 UV-I 0 W/m 22,5 km/h (4 Bft)
13.07.2011 22:10 14,8 C 88 % 1008,1 hPa 0,0 mm 6,4 km/h (2 Bft) W-SW 247 0 min 0 UV-I 0 W/m 17,7 km/h (3 Bft)
13.07.2011 22:20 14,7 C 88 % 1008,1 hPa 0,0 mm 4,8 km/h (1 Bft) SW 225 0 min 0 UV-I 0 W/m 16,1 km/h (3 Bft)
13.07.2011 22:30 14,6 C 89 % 1008,0 hPa 0,0 mm 4,8 km/h (1 Bft) W-SW 247 0 min 0 UV-I 0 W/m 14,5 km/h (3 Bft)
13.07.2011 22:40 14,5 C 89 % 1008,0 hPa 0,0 mm 3,2 km/h (1 Bft) S-SW 202 0 min 0 UV-I 0 W/m 16,1 km/h (3 Bft)
13.07.2011 22:50 14,4 C 89 % 1008,0 hPa 0,0 mm 6,4 km/h (2 Bft) W 270 0 min 0 UV-I 0 W/m 20,9 km/h (4 Bft)
13.07.2011 23:00 14,3 C 89 % 1008,2 hPa 0,0 mm 6,4 km/h (2 Bft) W-SW 247 0 min 0 UV-I 0 W/m 19,3 km/h (3 Bft)
13.07.2011 23:10 14,3 C 90 % 1008,5 hPa 0,0 mm 4,8 km/h (1 Bft) W 270 0 min 0 UV-I 0 W/m 19,3 km/h (3 Bft)
13.07.2011 23:20 14,1 C 90 % 1008,4 hPa 0,0 mm 6,4 km/h (2 Bft) W-SW 247 0 min 0 UV-I 0 W/m 20,9 km/h (4 Bft)
13.07.2011 23:30 14,0 C 90 % 1008,4 hPa 0,0 mm 8,0 km/h (2 Bft) W-SW 247 0 min 0 UV-I 0 W/m 19,3 km/h (3 Bft)
13.07.2011 23:40 13,9 C 90 % 1008,4 hPa 0,0 mm 4,8 km/h (1 Bft) W 270 0 min 0 UV-I 0 W/m 16,1 km/h (3 Bft)
13.07.2011 23:50 13,9 C 90 % 1008,5 hPa 0,0 mm 8,0 km/h (2 Bft) W 270 0 min 0 UV-I 0 W/m 17,7 km/h (3 Bft)
_ Min-Zeit 23:50 15:20 06:20 - 00:00 - - - - - 02:00
Minimum _ 13,8 C 75 % 1004,7 hPa - 0,0 km/h (0 Bft) - - - - - 0,0 km/h (0 Bft)
_ Max-Zeit 10:10 01:20 23:10 13:20 15:30 - - 07:20 14:20 14:20 16:00
Maximum _ 19,7 C 90 % 1008,5 hPa 0,3 mm 8,0 km/h
W (2 Bft)
- - 10 min 3 UV-I 366 W/m 22,5 km/h
W-SW (4 Bft)
Durchschnitt _ 17,6 C 84 % 1006,5 hPa #0,3 mm 3,3 km/h (1 Bft) W - #10 min. 2 UV-I 143 W/m 11,5 km/h (2 Bft)